createdAt,value
2018-12-06T00:00:54.917Z,7.70
2018-12-06T00:03:21.777Z,7.70
2018-12-06T00:05:48.665Z,7.70
2018-12-06T00:08:16.843Z,7.70
2018-12-06T00:10:43.800Z,7.60
2018-12-06T00:13:10.734Z,7.60
2018-12-06T00:15:37.647Z,7.60
2018-12-06T00:18:04.589Z,7.60
2018-12-06T00:20:31.479Z,7.40
2018-12-06T00:22:58.382Z,7.30
2018-12-06T00:25:25.246Z,7.30
2018-12-06T00:27:52.225Z,7.50
2018-12-06T00:30:36.009Z,7.60
2018-12-06T00:33:03.602Z,7.50
2018-12-06T00:35:30.578Z,7.40
2018-12-06T00:37:57.466Z,7.20
2018-12-06T00:40:24.400Z,7.20
2018-12-06T00:42:51.282Z,7.20
2018-12-06T00:45:18.161Z,7.30
2018-12-06T00:47:45.037Z,7.30
2018-12-06T00:50:11.925Z,7.40
2018-12-06T00:52:38.794Z,7.50
2018-12-06T00:55:05.666Z,7.40
2018-12-06T00:57:32.550Z,7.40
2018-12-06T00:59:59.426Z,7.40
2018-12-06T01:02:26.306Z,7.40
2018-12-06T01:04:53.216Z,7.50
2018-12-06T01:07:20.182Z,7.40
2018-12-06T01:09:47.041Z,7.40
2018-12-06T01:12:13.932Z,7.40
2018-12-06T01:14:40.785Z,7.30
2018-12-06T01:17:08.710Z,7.30
2018-12-06T01:19:36.037Z,7.40
2018-12-06T01:22:03.833Z,7.40
2018-12-06T01:24:30.725Z,7.50
2018-12-06T01:26:57.596Z,7.50
2018-12-06T01:29:24.534Z,7.70
2018-12-06T01:31:51.393Z,7.80
2018-12-06T01:34:18.286Z,7.60
2018-12-06T01:36:45.162Z,7.60
2018-12-06T01:39:12.052Z,7.60
2018-12-06T01:41:38.981Z,7.70
2018-12-06T01:44:05.982Z,7.60
2018-12-06T01:46:32.862Z,7.50
2018-12-06T01:48:59.721Z,7.50
2018-12-06T01:51:26.658Z,7.50
2018-12-06T01:53:53.501Z,7.70
2018-12-06T01:56:20.388Z,7.70
2018-12-06T01:58:47.254Z,7.70
2018-12-06T02:01:14.138Z,7.70
2018-12-06T02:03:41.032Z,7.80
2018-12-06T02:06:07.919Z,7.80
2018-12-06T02:08:34.787Z,7.90
2018-12-06T02:11:01.678Z,7.90
2018-12-06T02:13:28.546Z,7.90
2018-12-06T02:15:55.427Z,7.80
2018-12-06T02:18:22.298Z,7.80
2018-12-06T02:20:49.177Z,7.80
2018-12-06T02:23:16.067Z,7.80
2018-12-06T02:25:42.954Z,7.80
2018-12-06T02:28:09.879Z,7.80
2018-12-06T02:30:36.799Z,7.80
2018-12-06T02:33:03.686Z,7.80
2018-12-06T02:35:30.579Z,7.70
2018-12-06T02:37:57.445Z,7.70
2018-12-06T02:40:24.302Z,7.70
2018-12-06T02:42:51.160Z,7.70
2018-12-06T02:45:18.006Z,7.70
2018-12-06T02:47:44.916Z,7.80
2018-12-06T02:50:11.895Z,7.80
2018-12-06T02:52:38.817Z,7.80
2018-12-06T02:55:05.816Z,7.80
2018-12-06T02:57:32.673Z,7.80
2018-12-06T02:59:59.522Z,7.80
2018-12-06T03:02:26.435Z,7.80
2018-12-06T03:04:53.382Z,7.90
2018-12-06T03:07:20.303Z,7.90
2018-12-06T03:09:47.152Z,7.80
2018-12-06T03:12:14.034Z,7.90
2018-12-06T03:14:40.929Z,7.90
2018-12-06T03:17:07.783Z,7.90
2018-12-06T03:19:34.670Z,7.90
2018-12-06T03:22:01.599Z,7.90
2018-12-06T03:24:28.432Z,7.90
2018-12-06T03:26:55.331Z,7.90
2018-12-06T03:29:22.242Z,7.90
2018-12-06T03:31:49.176Z,7.90
2018-12-06T03:34:16.094Z,7.90
2018-12-06T03:36:43.062Z,7.90
2018-12-06T03:39:09.894Z,8.00
2018-12-06T03:41:36.823Z,8.00
2018-12-06T03:44:03.745Z,7.90
2018-12-06T03:46:30.675Z,7.90
2018-12-06T03:48:57.587Z,7.90
2018-12-06T03:51:24.440Z,7.90
2018-12-06T03:53:51.356Z,7.80
2018-12-06T03:56:18.209Z,7.80
2018-12-06T03:58:45.067Z,7.80
2018-12-06T04:01:11.896Z,7.80
2018-12-06T04:03:38.818Z,7.80
2018-12-06T04:06:05.752Z,7.90
2018-12-06T04:08:32.609Z,7.80
2018-12-06T04:10:59.560Z,7.90
2018-12-06T04:13:26.412Z,8.00
2018-12-06T04:15:53.325Z,8.00
2018-12-06T04:18:20.233Z,7.90
2018-12-06T04:20:47.156Z,7.90
2018-12-06T04:23:14.009Z,7.90
2018-12-06T04:25:40.920Z,7.90
2018-12-06T04:28:07.772Z,7.90
2018-12-06T04:30:34.615Z,7.80
2018-12-06T04:33:01.469Z,7.80
2018-12-06T04:35:28.337Z,7.80
2018-12-06T04:37:55.164Z,7.80
2018-12-06T04:40:22.016Z,7.80
2018-12-06T04:42:48.856Z,7.80
2018-12-06T04:45:15.793Z,7.90
2018-12-06T04:47:42.765Z,7.90
2018-12-06T04:50:09.652Z,7.90
2018-12-06T04:52:36.485Z,7.90
2018-12-06T04:55:03.568Z,7.80
2018-12-06T04:57:30.424Z,7.90
2018-12-06T04:59:57.261Z,8.00
2018-12-06T05:02:24.154Z,8.00
2018-12-06T05:04:51.068Z,7.90
2018-12-06T05:07:17.975Z,7.80
2018-12-06T05:09:44.799Z,7.90
2018-12-06T05:12:11.640Z,8.00
2018-12-06T05:14:38.491Z,7.90
2018-12-06T05:17:05.406Z,7.90
2018-12-06T05:19:32.295Z,7.80
2018-12-06T05:21:59.300Z,7.80
2018-12-06T05:24:26.197Z,7.70
2018-12-06T05:26:53.131Z,7.70
2018-12-06T05:29:20.044Z,7.70
2018-12-06T05:31:46.892Z,7.70
2018-12-06T05:34:13.725Z,7.80
2018-12-06T05:36:40.566Z,7.80
2018-12-06T05:39:07.602Z,7.80
2018-12-06T05:41:34.459Z,7.90
2018-12-06T05:44:01.302Z,7.80
2018-12-06T05:46:28.245Z,7.90
2018-12-06T05:48:55.109Z,7.90
2018-12-06T05:51:21.940Z,7.80
2018-12-06T05:53:48.876Z,7.90
2018-12-06T05:56:15.792Z,8.00
2018-12-06T05:58:42.656Z,8.00
2018-12-06T06:01:09.533Z,8.00
2018-12-06T06:03:36.373Z,8.00
2018-12-06T06:06:03.296Z,8.10
2018-12-06T06:08:30.229Z,8.10
2018-12-06T06:10:57.196Z,8.00
2018-12-06T06:13:24.048Z,8.00
2018-12-06T06:15:50.906Z,8.00
2018-12-06T06:18:17.817Z,8.00
2018-12-06T06:20:44.676Z,8.10
2018-12-06T06:23:11.527Z,8.10
2018-12-06T06:25:38.453Z,8.10
2018-12-06T06:28:05.295Z,8.10
2018-12-06T06:30:32.152Z,8.20
2018-12-06T06:32:59.072Z,8.20
2018-12-06T06:35:26.032Z,8.30
2018-12-06T06:37:52.878Z,8.30
2018-12-06T06:40:19.840Z,8.30
2018-12-06T06:42:46.673Z,8.30
2018-12-06T06:45:13.580Z,8.30
2018-12-06T06:47:40.431Z,8.30
2018-12-06T06:50:08.017Z,8.30
2018-12-06T06:52:34.939Z,8.30
2018-12-06T06:55:01.812Z,8.40
2018-12-06T06:57:28.713Z,8.30
2018-12-06T06:59:55.559Z,8.30
2018-12-06T07:02:22.494Z,8.20
2018-12-06T07:04:49.441Z,8.20
2018-12-06T07:07:16.312Z,8.20
2018-12-06T07:09:43.188Z,8.30
2018-12-06T07:12:10.044Z,8.20
2018-12-06T07:14:36.882Z,8.20
2018-12-06T07:17:04.176Z,8.20
2018-12-06T07:19:31.169Z,8.20
2018-12-06T07:21:58.023Z,8.30
2018-12-06T07:24:24.894Z,8.30
2018-12-06T07:26:51.810Z,8.40
2018-12-06T07:29:18.730Z,8.40
2018-12-06T07:31:45.692Z,8.50
2018-12-06T07:34:12.584Z,8.50
2018-12-06T07:36:39.578Z,8.50
2018-12-06T07:39:06.496Z,8.50
2018-12-06T07:41:33.341Z,8.60
2018-12-06T07:44:00.185Z,8.60
2018-12-06T07:46:27.064Z,8.70
2018-12-06T07:48:59.944Z,8.80
2018-12-06T07:51:26.785Z,8.80
2018-12-06T07:53:53.660Z,8.80
2018-12-06T07:56:20.552Z,8.80
2018-12-06T07:58:47.478Z,8.90
2018-12-06T08:01:14.332Z,8.90
2018-12-06T08:03:41.215Z,8.90
2018-12-06T08:06:08.048Z,8.90
2018-12-06T08:08:34.906Z,8.90
2018-12-06T08:11:01.848Z,8.80
2018-12-06T08:13:28.784Z,8.70
2018-12-06T08:15:55.657Z,8.70
2018-12-06T08:18:22.540Z,8.80
2018-12-06T08:20:49.418Z,8.90
2018-12-06T08:23:16.276Z,8.80
2018-12-06T08:25:43.215Z,8.70
2018-12-06T08:28:10.082Z,8.70
2018-12-06T08:30:36.922Z,8.70
2018-12-06T08:33:03.812Z,8.50
2018-12-06T08:35:30.650Z,8.50
2018-12-06T08:37:57.581Z,8.40
2018-12-06T08:40:24.444Z,8.50
2018-12-06T08:42:51.333Z,8.40
2018-12-06T08:45:18.164Z,8.50
2018-12-06T08:47:45.011Z,8.50
2018-12-06T08:50:11.904Z,8.50
2018-12-06T08:52:38.748Z,8.60
2018-12-06T08:55:05.728Z,8.60
2018-12-06T08:57:32.640Z,8.70
2018-12-06T08:59:59.512Z,8.90
2018-12-06T09:02:26.384Z,8.90
2018-12-06T09:04:53.249Z,9.10
2018-12-06T09:07:20.172Z,9.30
2018-12-06T09:09:47.021Z,9.40
2018-12-06T09:12:13.949Z,9.40
2018-12-06T09:14:40.785Z,9.50
2018-12-06T09:17:07.648Z,9.40
2018-12-06T09:19:34.560Z,9.50
2018-12-06T09:22:01.406Z,9.50
2018-12-06T09:24:28.263Z,9.60
2018-12-06T09:26:58.647Z,9.60
2018-12-06T09:29:23.941Z,9.70
2018-12-06T09:31:50.868Z,9.70
2018-12-06T09:34:17.720Z,9.70
2018-12-06T09:36:44.556Z,9.80
2018-12-06T09:39:11.446Z,9.80
2018-12-06T09:41:38.345Z,9.80
2018-12-06T09:44:05.240Z,9.80
2018-12-06T09:46:32.220Z,9.90
2018-12-06T09:48:59.054Z,9.90
2018-12-06T09:51:25.994Z,9.80
2018-12-06T09:53:52.825Z,9.80
2018-12-06T09:56:19.715Z,9.80
2018-12-06T09:58:46.638Z,9.80
2018-12-06T10:01:13.530Z,9.90
2018-12-06T10:03:40.396Z,9.90
2018-12-06T10:06:07.249Z,9.80
2018-12-06T10:08:34.128Z,9.80
2018-12-06T10:11:00.972Z,9.90
2018-12-06T10:13:27.908Z,10.00
2018-12-06T10:15:54.755Z,9.90
2018-12-06T10:18:21.601Z,9.80
2018-12-06T10:20:48.576Z,9.70
2018-12-06T10:23:15.418Z,9.70
2018-12-06T10:25:42.269Z,9.80
2018-12-06T10:28:09.155Z,9.70
2018-12-06T10:30:36.028Z,9.50
2018-12-06T10:33:02.948Z,9.50
2018-12-06T10:35:29.801Z,9.50
2018-12-06T10:37:56.664Z,9.50
2018-12-06T10:40:23.502Z,9.70
2018-12-06T10:42:50.585Z,9.70
2018-12-06T10:45:17.446Z,9.80
2018-12-06T10:47:44.281Z,10.00
2018-12-06T10:50:11.145Z,10.20
2018-12-06T10:52:38.025Z,10.40
2018-12-06T10:55:04.945Z,10.50
2018-12-06T10:57:31.866Z,10.60
2018-12-06T10:59:58.825Z,10.80
2018-12-06T11:02:25.704Z,10.80
2018-12-06T11:04:53.253Z,10.90
2018-12-06T11:07:20.138Z,11.00
2018-12-06T11:09:47.035Z,11.20
2018-12-06T11:12:13.948Z,11.20
2018-12-06T11:14:40.804Z,11.20
2018-12-06T11:17:07.672Z,11.20
2018-12-06T11:19:34.627Z,11.30
2018-12-06T11:22:01.464Z,11.30
2018-12-06T11:24:28.354Z,11.40
2018-12-06T11:26:55.284Z,11.30
2018-12-06T11:29:22.159Z,11.20
2018-12-06T11:31:49.089Z,11.00
2018-12-06T11:34:16.051Z,11.00
2018-12-06T11:36:42.869Z,10.90
2018-12-06T11:39:09.784Z,10.90
2018-12-06T11:41:43.061Z,10.90
2018-12-06T11:44:05.584Z,10.80
2018-12-06T11:46:32.424Z,10.90
2018-12-06T11:48:59.286Z,10.80
2018-12-06T11:51:26.143Z,10.60
2018-12-06T11:53:53.155Z,10.40
2018-12-06T11:56:20.022Z,10.40
2018-12-06T11:58:46.892Z,10.40
2018-12-06T12:01:13.873Z,10.60
2018-12-06T12:03:40.785Z,10.70
2018-12-06T12:06:07.726Z,10.80
2018-12-06T12:08:34.571Z,10.90
2018-12-06T12:11:01.452Z,11.10
2018-12-06T12:13:28.299Z,11.20
2018-12-06T12:15:55.143Z,11.40
2018-12-06T12:18:22.051Z,11.50
2018-12-06T12:20:48.891Z,11.70
2018-12-06T12:23:16.120Z,11.80
2018-12-06T12:25:42.992Z,11.70
2018-12-06T12:28:09.828Z,11.60
2018-12-06T12:30:36.737Z,11.50
2018-12-06T12:33:03.567Z,11.40
2018-12-06T12:35:30.413Z,11.50
2018-12-06T12:37:57.265Z,11.60
2018-12-06T12:40:24.141Z,11.50
2018-12-06T12:42:50.998Z,11.40
2018-12-06T12:45:17.974Z,11.40
2018-12-06T12:47:44.869Z,11.30
2018-12-06T12:50:11.732Z,11.30
2018-12-06T12:52:38.570Z,11.20
2018-12-06T12:55:05.517Z,11.10
2018-12-06T12:57:32.369Z,10.90
2018-12-06T12:59:59.211Z,10.90
2018-12-06T13:02:26.192Z,11.00
2018-12-06T13:04:53.065Z,11.10
2018-12-06T13:07:19.958Z,11.10
2018-12-06T13:09:46.804Z,11.20
2018-12-06T13:12:13.640Z,11.10
2018-12-06T13:14:40.540Z,11.10
2018-12-06T13:17:07.388Z,11.10
2018-12-06T13:19:34.225Z,11.10
2018-12-06T13:22:46.673Z,11.10
2018-12-06T13:25:13.682Z,11.40
2018-12-06T13:27:40.593Z,11.50
2018-12-06T13:30:07.452Z,11.70
2018-12-06T13:32:34.334Z,11.60
2018-12-06T13:35:01.244Z,11.50
2018-12-06T13:37:28.132Z,11.50
2018-12-06T13:39:54.968Z,11.60
2018-12-06T13:42:23.677Z,11.70
2018-12-06T13:44:50.835Z,11.80
2018-12-06T13:47:17.776Z,11.70
2018-12-06T13:49:44.731Z,11.70
2018-12-06T13:52:11.568Z,11.70
2018-12-06T13:54:38.489Z,11.80
2018-12-06T13:57:05.327Z,11.70
2018-12-06T13:59:32.196Z,11.80
2018-12-06T14:01:59.041Z,11.80
2018-12-06T14:04:25.887Z,11.90
2018-12-06T14:06:52.832Z,11.90
2018-12-06T14:09:19.696Z,11.90
2018-12-06T14:11:46.535Z,11.90
2018-12-06T14:14:13.409Z,12.00
2018-12-06T14:16:40.285Z,12.00
2018-12-06T14:19:07.706Z,11.80
2018-12-06T14:21:34.553Z,11.60
2018-12-06T14:24:01.388Z,11.60
2018-12-06T14:26:28.257Z,11.70
2018-12-06T14:28:55.116Z,11.60
2018-12-06T14:31:21.948Z,11.60
2018-12-06T14:33:48.908Z,11.60
2018-12-06T14:36:15.791Z,11.60
2018-12-06T14:38:42.687Z,11.70
2018-12-06T14:41:09.507Z,11.70
2018-12-06T14:43:36.571Z,11.80
2018-12-06T14:46:03.493Z,11.80
2018-12-06T14:48:30.399Z,11.80
2018-12-06T14:50:57.233Z,11.80
2018-12-06T14:53:24.089Z,11.80
2018-12-06T14:55:50.909Z,11.80
2018-12-06T14:58:17.753Z,11.80
2018-12-06T15:00:44.612Z,11.80
2018-12-06T15:03:11.461Z,11.80
2018-12-06T15:05:38.303Z,11.80
2018-12-06T15:08:05.212Z,11.80
2018-12-06T15:10:32.185Z,11.80
2018-12-06T15:12:59.091Z,11.80
2018-12-06T15:15:25.939Z,11.80
2018-12-06T15:17:52.788Z,11.80
2018-12-06T15:20:19.644Z,11.80
2018-12-06T15:22:46.920Z,11.80
2018-12-06T15:25:13.771Z,11.80
2018-12-06T15:27:40.713Z,11.70
2018-12-06T15:30:07.837Z,11.70
2018-12-06T15:32:34.686Z,11.70
2018-12-06T15:35:01.611Z,11.70
2018-12-06T15:37:28.452Z,11.70
2018-12-06T15:39:55.288Z,11.70
2018-12-06T15:42:22.136Z,11.80
2018-12-06T15:44:49.036Z,11.80
2018-12-06T15:47:15.940Z,11.70
2018-12-06T15:49:42.788Z,11.70
2018-12-06T15:52:09.637Z,11.70
2018-12-06T15:54:36.504Z,11.70
2018-12-06T15:57:03.426Z,11.60
2018-12-06T15:59:30.257Z,11.40
2018-12-06T16:01:57.100Z,11.40
2018-12-06T16:04:23.936Z,11.40
2018-12-06T16:06:50.792Z,11.30
2018-12-06T16:09:17.624Z,11.20
2018-12-06T16:11:44.484Z,11.20
2018-12-06T16:14:11.319Z,11.20
2018-12-06T16:16:38.175Z,11.30
2018-12-06T16:19:05.044Z,11.20
2018-12-06T16:21:31.969Z,11.20
2018-12-06T16:23:58.824Z,11.20
2018-12-06T16:26:25.658Z,11.20
2018-12-06T16:28:52.612Z,11.20
2018-12-06T16:31:19.569Z,11.20
2018-12-06T16:33:46.420Z,11.30
2018-12-06T16:36:13.293Z,11.30
2018-12-06T16:38:40.136Z,11.30
2018-12-06T16:41:06.980Z,11.30
2018-12-06T16:43:33.825Z,11.30
2018-12-06T16:46:00.697Z,11.50
2018-12-06T16:48:27.625Z,11.60
2018-12-06T16:50:54.541Z,11.50
2018-12-06T16:53:21.541Z,11.50
2018-12-06T16:55:48.376Z,11.30
2018-12-06T16:58:15.235Z,11.30
2018-12-06T17:00:42.148Z,11.30
2018-12-06T17:03:09.020Z,11.30
2018-12-06T17:05:35.860Z,11.20
2018-12-06T17:08:02.844Z,11.20
2018-12-06T17:10:29.798Z,11.20
2018-12-06T17:12:56.694Z,11.40
2018-12-06T17:15:23.580Z,11.40
2018-12-06T17:17:50.441Z,11.20
2018-12-06T17:20:17.366Z,11.20
2018-12-06T17:22:44.313Z,11.10
2018-12-06T17:25:11.411Z,11.10
2018-12-06T17:27:38.259Z,11.00
2018-12-06T17:30:06.104Z,11.00
2018-12-06T17:32:32.939Z,11.00
2018-12-06T17:34:59.779Z,11.10
2018-12-06T17:37:26.635Z,11.00
2018-12-06T17:39:53.509Z,11.00
2018-12-06T17:42:20.483Z,10.90
2018-12-06T17:44:47.335Z,11.00
2018-12-06T17:47:14.276Z,11.00
2018-12-06T17:49:41.121Z,11.00
2018-12-06T17:52:07.993Z,11.10
2018-12-06T17:54:34.852Z,11.10
2018-12-06T17:57:01.672Z,11.10
2018-12-06T17:59:28.531Z,11.20
2018-12-06T18:01:55.399Z,11.20
2018-12-06T18:04:22.229Z,11.40
2018-12-06T18:06:49.116Z,11.40
2018-12-06T18:09:15.979Z,11.60
2018-12-06T18:11:42.811Z,11.50
2018-12-06T18:14:09.663Z,11.40
2018-12-06T18:16:36.584Z,11.20
2018-12-06T18:19:03.495Z,11.20
2018-12-06T18:21:30.517Z,11.20
2018-12-06T18:23:57.353Z,11.20
2018-12-06T18:26:24.204Z,11.30
2018-12-06T18:28:51.048Z,11.30
2018-12-06T18:31:17.906Z,11.30
2018-12-06T18:33:44.756Z,11.30
2018-12-06T18:36:11.656Z,11.30
2018-12-06T18:38:38.581Z,11.30
2018-12-06T18:41:05.452Z,11.30
2018-12-06T18:43:32.308Z,11.30
2018-12-06T18:45:59.247Z,11.30
2018-12-06T18:48:26.100Z,11.30
2018-12-06T18:50:53.039Z,11.40
2018-12-06T18:53:19.869Z,11.30
2018-12-06T18:55:46.748Z,11.30
2018-12-06T18:58:13.638Z,11.30
2018-12-06T19:00:40.556Z,11.30
2018-12-06T19:03:07.430Z,11.30
2018-12-06T19:05:34.302Z,11.40
2018-12-06T19:08:01.138Z,11.30
2018-12-06T19:10:28.080Z,11.30
2018-12-06T19:12:54.956Z,11.30
2018-12-06T19:15:21.917Z,11.30
2018-12-06T19:17:48.805Z,11.40
2018-12-06T19:20:15.648Z,11.50
2018-12-06T19:22:42.515Z,11.40
2018-12-06T19:25:09.416Z,11.40
2018-12-06T19:27:36.327Z,11.40
2018-12-06T19:30:05.864Z,11.40
2018-12-06T19:32:32.729Z,11.40
2018-12-06T19:34:59.562Z,11.50
2018-12-06T19:37:26.428Z,11.40
2018-12-06T19:39:53.285Z,11.50
2018-12-06T19:42:20.176Z,11.50
2018-12-06T19:44:47.062Z,11.50
2018-12-06T19:47:14.023Z,11.50
2018-12-06T19:49:40.878Z,11.60
2018-12-06T19:52:07.848Z,11.60
2018-12-06T19:54:34.684Z,11.60
2018-12-06T19:57:01.547Z,11.60
2018-12-06T19:59:28.504Z,11.60
2018-12-06T20:01:55.331Z,11.50
2018-12-06T20:04:22.274Z,11.60
2018-12-06T20:06:49.136Z,11.60
2018-12-06T20:09:16.104Z,11.60
2018-12-06T20:11:42.952Z,11.60
2018-12-06T20:14:09.875Z,11.70
2018-12-06T20:16:36.790Z,11.70
2018-12-06T20:19:03.652Z,11.70
2018-12-06T20:21:30.513Z,11.80
2018-12-06T20:23:57.346Z,11.80
2018-12-06T20:26:24.298Z,11.80
2018-12-06T20:28:51.207Z,11.80
2018-12-06T20:31:18.151Z,11.80
2018-12-06T20:33:45.052Z,11.80
2018-12-06T20:36:12.037Z,11.70
2018-12-06T20:38:38.936Z,11.70
2018-12-06T20:41:05.866Z,11.80
2018-12-06T20:43:32.740Z,11.80
2018-12-06T20:45:59.585Z,11.80
2018-12-06T20:48:26.451Z,11.80
2018-12-06T20:50:53.302Z,11.80
2018-12-06T20:53:20.158Z,11.80
2018-12-06T20:55:47.049Z,11.80
2018-12-06T20:58:15.171Z,11.80
2018-12-06T21:00:42.431Z,11.80
2018-12-06T21:03:09.287Z,11.80
2018-12-06T21:05:36.240Z,11.90
2018-12-06T21:08:03.190Z,11.80
2018-12-06T21:10:30.111Z,11.80
2018-12-06T21:12:57.069Z,11.90
2018-12-06T21:15:23.981Z,11.90
2018-12-06T21:17:50.853Z,11.90
2018-12-06T21:20:17.766Z,11.90
2018-12-06T21:22:44.618Z,11.90
2018-12-06T21:25:11.508Z,11.90
2018-12-06T21:27:38.353Z,12.00
2018-12-06T21:30:05.864Z,11.90
2018-12-06T21:32:32.728Z,11.90
2018-12-06T21:34:59.651Z,11.90
2018-12-06T21:37:26.555Z,11.90
2018-12-06T21:39:53.444Z,11.90
2018-12-06T21:42:20.297Z,11.90
2018-12-06T21:44:47.214Z,11.90
2018-12-06T21:47:14.096Z,11.90
2018-12-06T21:49:41.023Z,12.00
2018-12-06T21:52:07.877Z,12.00
2018-12-06T21:54:34.751Z,12.00
2018-12-06T21:57:01.621Z,12.00
2018-12-06T21:59:28.533Z,12.00
2018-12-06T22:02:04.938Z,12.00
2018-12-06T22:04:31.774Z,12.00
2018-12-06T22:06:58.702Z,12.00
2018-12-06T22:09:25.564Z,12.00
2018-12-06T22:11:52.396Z,11.90
2018-12-06T22:14:19.335Z,11.90
2018-12-06T22:16:46.194Z,12.00
2018-12-06T22:19:13.041Z,12.00
2018-12-06T22:21:39.903Z,12.00
2018-12-06T22:24:07.102Z,12.10
2018-12-06T22:26:33.943Z,12.00
2018-12-06T22:29:00.816Z,12.10
2018-12-06T22:31:27.682Z,12.20
2018-12-06T22:33:54.854Z,12.10
2018-12-06T22:36:21.716Z,12.20
2018-12-06T22:38:48.674Z,12.20
2018-12-06T22:41:15.608Z,12.10
2018-12-06T22:43:42.506Z,12.10
2018-12-06T22:46:09.364Z,12.10
2018-12-06T22:48:36.196Z,12.10
2018-12-06T22:51:03.113Z,12.10
2018-12-06T22:53:29.985Z,12.10
2018-12-06T22:55:56.858Z,12.10
2018-12-06T22:58:24.095Z,12.10
2018-12-06T23:00:51.520Z,12.10
2018-12-06T23:03:18.397Z,12.10
2018-12-06T23:05:45.294Z,12.10
2018-12-06T23:08:12.169Z,12.10
2018-12-06T23:10:39.100Z,12.10
2018-12-06T23:13:06.020Z,12.10
2018-12-06T23:15:32.904Z,12.10
2018-12-06T23:17:59.776Z,12.10
2018-12-06T23:20:26.657Z,12.20
2018-12-06T23:22:53.527Z,12.20
2018-12-06T23:25:20.460Z,12.20
2018-12-06T23:27:47.292Z,12.20
2018-12-06T23:30:14.168Z,12.20
2018-12-06T23:32:41.016Z,12.10
2018-12-06T23:35:07.940Z,12.10
2018-12-06T23:37:34.789Z,12.10
2018-12-06T23:40:01.965Z,12.10
2018-12-06T23:42:28.955Z,12.10
2018-12-06T23:44:55.836Z,12.30
2018-12-06T23:47:22.695Z,12.30
2018-12-06T23:49:49.676Z,12.20
2018-12-06T23:52:16.574Z,12.10
2018-12-06T23:54:43.518Z,12.10
2018-12-06T23:57:10.373Z,12.20
2018-12-06T23:59:37.300Z,12.20
